Terminal Aerodrome Forecast
Issued by NWS

Home | Current Version | Previous Version | Text Only | Print | Product List | Glossary On
Versions: 1 2 3 4 5 6 7 8 9 10 11 12 13 14 15
000
FTUS42 KJAX 272338
TAFCRG
TAF
KCRG 272338Z 2800/2824 14011G16KT P6SM BKN080
     FM280200 19006KT P6SM SCT060 SCT150 SCT250
     FM281100 18004KT P6SM SCT010 SCT080
     FM281400 18010G15KT P6SM SCT035 SCT080
     FM281800 14012G18KT P6SM SCT040 SCT080=

USA.gov is the U.S. government's official web portal to all federal, state and local government web resources and services.